sensor_id;sensor_type;location;lat;lon;timestamp;P1;durP1;ratioP1;P2;durP2;ratioP2
35380;SDS011;21486;51.916;8.378;2024-03-02T00:00:00;15.38;;;8.25;;
35380;SDS011;21486;51.916;8.378;2024-03-02T00:02:34;13.30;;;8.23;;
35380;SDS011;21486;51.916;8.378;2024-03-02T00:05:04;15.38;;;8.68;;
35380;SDS011;21486;51.916;8.378;2024-03-02T00:07:31;15.75;;;8.70;;
35380;SDS011;21486;51.916;8.378;2024-03-02T00:09:57;14.33;;;8.77;;
35380;SDS011;21486;51.916;8.378;2024-03-02T00:12:22;15.30;;;8.50;;
35380;SDS011;21486;51.916;8.378;2024-03-02T00:14:48;14.23;;;8.67;;
35380;SDS011;21486;51.916;8.378;2024-03-02T00:17:16;14.75;;;9.07;;
35380;SDS011;21486;51.916;8.378;2024-03-02T00:19:47;16.10;;;9.07;;
35380;SDS011;21486;51.916;8.378;2024-03-02T00:22:12;13.90;;;8.93;;
35380;SDS011;21486;51.916;8.378;2024-03-02T00:24:38;15.37;;;8.90;;
35380;SDS011;21486;51.916;8.378;2024-03-02T00:27:04;14.05;;;8.00;;
35380;SDS011;21486;51.916;8.378;2024-03-02T00:29:32;14.70;;;9.02;;
35380;SDS011;21486;51.916;8.378;2024-03-02T00:31:57;15.63;;;9.27;;
35380;SDS011;21486;51.916;8.378;2024-03-02T00:34:23;15.27;;;9.13;;
35380;SDS011;21486;51.916;8.378;2024-03-02T00:36:49;16.05;;;9.35;;
35380;SDS011;21486;51.916;8.378;2024-03-02T00:39:16;16.27;;;8.93;;
35380;SDS011;21486;51.916;8.378;2024-03-02T00:41:42;17.88;;;9.95;;
35380;SDS011;21486;51.916;8.378;2024-03-02T00:44:12;16.48;;;9.75;;
35380;SDS011;21486;51.916;8.378;2024-03-02T00:46:38;17.60;;;9.10;;
35380;SDS011;21486;51.916;8.378;2024-03-02T00:49:05;16.67;;;9.57;;
35380;SDS011;21486;51.916;8.378;2024-03-02T00:51:35;15.70;;;9.70;;
35380;SDS011;21486;51.916;8.378;2024-03-02T00:54:05;17.60;;;9.88;;
35380;SDS011;21486;51.916;8.378;2024-03-02T00:56:32;17.10;;;10.00;;
35380;SDS011;21486;51.916;8.378;2024-03-02T00:58:59;17.38;;;9.80;;
35380;SDS011;21486;51.916;8.378;2024-03-02T01:01:25;15.90;;;9.35;;
35380;SDS011;21486;51.916;8.378;2024-03-02T01:03:51;16.73;;;9.97;;
35380;SDS011;21486;51.916;8.378;2024-03-02T01:06:17;16.98;;;9.55;;
35380;SDS011;21486;51.916;8.378;2024-03-02T01:08:43;15.95;;;9.75;;
35380;SDS011;21486;51.916;8.378;2024-03-02T01:11:09;18.97;;;10.07;;
35380;SDS011;21486;51.916;8.378;2024-03-02T01:13:34;15.87;;;10.23;;
35380;SDS011;21486;51.916;8.378;2024-03-02T01:16:00;16.30;;;10.17;;
35380;SDS011;21486;51.916;8.378;2024-03-02T01:18:26;18.45;;;10.55;;
35380;SDS011;21486;51.916;8.378;2024-03-02T01:20:52;17.63;;;10.00;;
35380;SDS011;21486;51.916;8.378;2024-03-02T01:23:20;17.88;;;9.55;;
35380;SDS011;21486;51.916;8.378;2024-03-02T01:25:48;18.05;;;10.00;;
35380;SDS011;21486;51.916;8.378;2024-03-02T01:28:14;17.70;;;10.32;;
35380;SDS011;21486;51.916;8.378;2024-03-02T01:33:02;18.92;;;10.55;;
35380;SDS011;21486;51.916;8.378;2024-03-02T01:35:30;16.08;;;10.10;;
35380;SDS011;21486;51.916;8.378;2024-03-02T01:37:56;17.38;;;9.57;;
35380;SDS011;21486;51.916;8.378;2024-03-02T01:40:21;18.40;;;10.47;;
35380;SDS011;21486;51.916;8.378;2024-03-02T01:42:48;16.35;;;9.82;;
35380;SDS011;21486;51.916;8.378;2024-03-02T01:45:14;15.80;;;9.75;;
35380;SDS011;21486;51.916;8.378;2024-03-02T01:47:39;16.13;;;9.48;;
35380;SDS011;21486;51.916;8.378;2024-03-02T01:50:05;17.37;;;10.57;;
35380;SDS011;21486;51.916;8.378;2024-03-02T01:52:32;16.77;;;10.00;;
35380;SDS011;21486;51.916;8.378;2024-03-02T01:54:57;16.47;;;9.57;;
35380;SDS011;21486;51.916;8.378;2024-03-02T01:57:23;16.87;;;9.67;;
35380;SDS011;21486;51.916;8.378;2024-03-02T01:59:48;14.20;;;9.43;;
35380;SDS011;21486;51.916;8.378;2024-03-02T02:02:15;15.35;;;9.57;;
35380;SDS011;21486;51.916;8.378;2024-03-02T02:04:41;16.25;;;9.98;;
35380;SDS011;21486;51.916;8.378;2024-03-02T02:07:07;15.53;;;9.90;;
35380;SDS011;21486;51.916;8.378;2024-03-02T02:09:32;16.17;;;9.63;;
35380;SDS011;21486;51.916;8.378;2024-03-02T02:11:58;16.80;;;9.57;;
35380;SDS011;21486;51.916;8.378;2024-03-02T02:14:24;15.13;;;9.35;;
35380;SDS011;21486;51.916;8.378;2024-03-02T02:16:49;17.85;;;9.70;;
35380;SDS011;21486;51.916;8.378;2024-03-02T02:19:15;15.60;;;10.17;;
35380;SDS011;21486;51.916;8.378;2024-03-02T02:21:43;16.90;;;9.97;;
35380;SDS011;21486;51.916;8.378;2024-03-02T02:24:09;15.60;;;9.85;;
35380;SDS011;21486;51.916;8.378;2024-03-02T02:26:35;16.73;;;10.02;;
35380;SDS011;21486;51.916;8.378;2024-03-02T02:29:00;16.40;;;9.63;;
35380;SDS011;21486;51.916;8.378;2024-03-02T02:31:26;14.82;;;9.30;;
35380;SDS011;21486;51.916;8.378;2024-03-02T02:33:52;17.13;;;10.52;;
35380;SDS011;21486;51.916;8.378;2024-03-02T02:36:17;15.30;;;9.83;;
35380;SDS011;21486;51.916;8.378;2024-03-02T02:38:44;17.77;;;9.50;;
35380;SDS011;21486;51.916;8.378;2024-03-02T02:41:11;14.82;;;9.23;;
35380;SDS011;21486;51.916;8.378;2024-03-02T02:43:37;15.68;;;9.63;;
35380;SDS011;21486;51.916;8.378;2024-03-02T02:46:04;17.20;;;9.95;;
35380;SDS011;21486;51.916;8.378;2024-03-02T02:48:30;14.87;;;9.13;;
35380;SDS011;21486;51.916;8.378;2024-03-02T02:50:55;16.67;;;9.80;;
35380;SDS011;21486;51.916;8.378;2024-03-02T02:53:21;16.48;;;9.85;;
35380;SDS011;21486;51.916;8.378;2024-03-02T02:55:46;18.23;;;10.15;;
35380;SDS011;21486;51.916;8.378;2024-03-02T02:58:12;15.23;;;9.60;;
35380;SDS011;21486;51.916;8.378;2024-03-02T03:00:38;15.10;;;9.20;;
35380;SDS011;21486;51.916;8.378;2024-03-02T03:03:04;15.90;;;9.87;;
35380;SDS011;21486;51.916;8.378;2024-03-02T03:05:30;15.63;;;10.00;;
35380;SDS011;21486;51.916;8.378;2024-03-02T03:07:55;16.00;;;9.60;;
35380;SDS011;21486;51.916;8.378;2024-03-02T03:10:21;17.50;;;10.73;;
35380;SDS011;21486;51.916;8.378;2024-03-02T03:12:48;15.80;;;9.98;;
35380;SDS011;21486;51.916;8.378;2024-03-02T03:15:14;16.08;;;10.30;;
35380;SDS011;21486;51.916;8.378;2024-03-02T03:17:41;17.50;;;10.03;;
35380;SDS011;21486;51.916;8.378;2024-03-02T03:20:06;17.70;;;10.53;;
35380;SDS011;21486;51.916;8.378;2024-03-02T03:22:36;16.92;;;10.00;;
35380;SDS011;21486;51.916;8.378;2024-03-02T03:25:04;21.00;;;11.00;;
35380;SDS011;21486;51.916;8.378;2024-03-02T03:27:30;19.15;;;10.80;;
35380;SDS011;21486;51.916;8.378;2024-03-02T03:29:56;19.57;;;11.37;;
35380;SDS011;21486;51.916;8.378;2024-03-02T03:32:21;18.93;;;11.33;;
35380;SDS011;21486;51.916;8.378;2024-03-02T03:34:47;19.20;;;11.27;;
35380;SDS011;21486;51.916;8.378;2024-03-02T03:37:13;18.02;;;10.93;;
35380;SDS011;21486;51.916;8.378;2024-03-02T03:39:39;18.48;;;10.68;;
35380;SDS011;21486;51.916;8.378;2024-03-02T03:42:04;20.00;;;11.27;;
35380;SDS011;21486;51.916;8.378;2024-03-02T03:44:30;19.30;;;12.05;;
35380;SDS011;21486;51.916;8.378;2024-03-02T03:46:56;17.23;;;11.30;;
35380;SDS011;21486;51.916;8.378;2024-03-02T03:49:21;19.43;;;11.63;;
35380;SDS011;21486;51.916;8.378;2024-03-02T03:51:47;19.70;;;11.97;;
35380;SDS011;21486;51.916;8.378;2024-03-02T03:54:13;30.00;;;11.53;;
35380;SDS011;21486;51.916;8.378;2024-03-02T03:56:38;19.40;;;11.60;;
35380;SDS011;21486;51.916;8.378;2024-03-02T03:59:04;19.02;;;11.30;;
35380;SDS011;21486;51.916;8.378;2024-03-02T04:01:29;18.98;;;11.00;;
35380;SDS011;21486;51.916;8.378;2024-03-02T04:03:56;19.92;;;12.05;;
35380;SDS011;21486;51.916;8.378;2024-03-02T04:06:22;22.27;;;12.95;;
35380;SDS011;21486;51.916;8.378;2024-03-02T04:08:48;20.35;;;11.88;;
35380;SDS011;21486;51.916;8.378;2024-03-02T04:11:13;19.13;;;11.93;;
35380;SDS011;21486;51.916;8.378;2024-03-02T04:13:39;20.27;;;12.53;;
35380;SDS011;21486;51.916;8.378;2024-03-02T04:16:04;20.17;;;12.17;;
35380;SDS011;21486;51.916;8.378;2024-03-02T04:18:30;20.20;;;12.30;;
35380;SDS011;21486;51.916;8.378;2024-03-02T04:20:57;22.13;;;13.00;;
35380;SDS011;21486;51.916;8.378;2024-03-02T04:23:24;22.98;;;13.65;;
35380;SDS011;21486;51.916;8.378;2024-03-02T04:25:50;22.13;;;13.25;;
35380;SDS011;21486;51.916;8.378;2024-03-02T04:28:15;24.63;;;13.88;;
35380;SDS011;21486;51.916;8.378;2024-03-02T04:30:41;22.30;;;12.67;;
35380;SDS011;21486;51.916;8.378;2024-03-02T04:33:07;22.20;;;13.80;;
35380;SDS011;21486;51.916;8.378;2024-03-02T04:35:34;23.38;;;13.75;;
35380;SDS011;21486;51.916;8.378;2024-03-02T04:38:00;24.30;;;14.18;;
35380;SDS011;21486;51.916;8.378;2024-03-02T04:40:26;24.88;;;14.80;;
35380;SDS011;21486;51.916;8.378;2024-03-02T04:42:51;24.30;;;14.23;;
35380;SDS011;21486;51.916;8.378;2024-03-02T04:45:17;25.40;;;14.53;;
35380;SDS011;21486;51.916;8.378;2024-03-02T04:47:42;26.27;;;14.67;;
35380;SDS011;21486;51.916;8.378;2024-03-02T04:50:08;26.05;;;14.48;;
35380;SDS011;21486;51.916;8.378;2024-03-02T04:52:34;25.33;;;14.70;;
35380;SDS011;21486;51.916;8.378;2024-03-02T04:54:59;24.85;;;14.15;;
35380;SDS011;21486;51.916;8.378;2024-03-02T04:57:43;26.77;;;15.05;;
35380;SDS011;21486;51.916;8.378;2024-03-02T05:00:09;26.17;;;14.63;;
35380;SDS011;21486;51.916;8.378;2024-03-02T05:02:35;26.77;;;15.32;;
35380;SDS011;21486;51.916;8.378;2024-03-02T05:05:01;27.00;;;14.70;;
35380;SDS011;21486;51.916;8.378;2024-03-02T05:07:27;30.42;;;15.80;;
35380;SDS011;21486;51.916;8.378;2024-03-02T05:09:53;28.30;;;15.52;;
35380;SDS011;21486;51.916;8.378;2024-03-02T05:12:19;27.60;;;15.60;;
35380;SDS011;21486;51.916;8.378;2024-03-02T05:15:03;29.93;;;16.80;;
35380;SDS011;21486;51.916;8.378;2024-03-02T05:17:29;26.27;;;16.00;;
35380;SDS011;21486;51.916;8.378;2024-03-02T05:19:55;29.47;;;15.37;;
35380;SDS011;21486;51.916;8.378;2024-03-02T05:22:20;28.63;;;15.50;;
35380;SDS011;21486;51.916;8.378;2024-03-02T05:24:46;27.27;;;15.50;;
35380;SDS011;21486;51.916;8.378;2024-03-02T05:27:11;29.75;;;15.82;;
35380;SDS011;21486;51.916;8.378;2024-03-02T05:29:37;28.98;;;15.50;;
35380;SDS011;21486;51.916;8.378;2024-03-02T05:32:02;29.00;;;16.33;;
35380;SDS011;21486;51.916;8.378;2024-03-02T05:34:28;27.37;;;15.23;;
35380;SDS011;21486;51.916;8.378;2024-03-02T05:36:54;26.73;;;16.00;;
35380;SDS011;21486;51.916;8.378;2024-03-02T05:39:19;28.73;;;15.50;;
35380;SDS011;21486;51.916;8.378;2024-03-02T05:41:45;26.13;;;15.17;;
35380;SDS011;21486;51.916;8.378;2024-03-02T05:44:10;27.05;;;15.50;;
35380;SDS011;21486;51.916;8.378;2024-03-02T05:46:36;29.50;;;15.90;;
35380;SDS011;21486;51.916;8.378;2024-03-02T05:49:01;27.63;;;14.97;;
35380;SDS011;21486;51.916;8.378;2024-03-02T05:51:27;28.47;;;15.27;;
35380;SDS011;21486;51.916;8.378;2024-03-02T05:53:52;27.97;;;15.20;;
35380;SDS011;21486;51.916;8.378;2024-03-02T05:56:18;30.70;;;16.17;;
35380;SDS011;21486;51.916;8.378;2024-03-02T05:58:43;25.07;;;15.27;;
35380;SDS011;21486;51.916;8.378;2024-03-02T06:01:28;26.15;;;15.65;;
35380;SDS011;21486;51.916;8.378;2024-03-02T06:03:57;27.90;;;14.93;;
35380;SDS011;21486;51.916;8.378;2024-03-02T06:06:23;25.50;;;14.80;;
35380;SDS011;21486;51.916;8.378;2024-03-02T06:08:49;27.80;;;15.10;;
35380;SDS011;21486;51.916;8.378;2024-03-02T06:11:15;26.87;;;14.80;;
35380;SDS011;21486;51.916;8.378;2024-03-02T06:13:40;27.27;;;15.17;;
35380;SDS011;21486;51.916;8.378;2024-03-02T06:16:06;30.23;;;16.30;;
35380;SDS011;21486;51.916;8.378;2024-03-02T06:18:33;31.35;;;15.63;;
35380;SDS011;21486;51.916;8.378;2024-03-02T06:20:59;28.53;;;15.07;;
35380;SDS011;21486;51.916;8.378;2024-03-02T06:23:25;26.88;;;15.10;;
35380;SDS011;21486;51.916;8.378;2024-03-02T06:25:51;27.90;;;14.90;;
35380;SDS011;21486;51.916;8.378;2024-03-02T06:28:17;26.10;;;15.43;;
35380;SDS011;21486;51.916;8.378;2024-03-02T06:30:42;28.00;;;15.27;;
35380;SDS011;21486;51.916;8.378;2024-03-02T06:33:08;31.65;;;16.65;;
35380;SDS011;21486;51.916;8.378;2024-03-02T06:35:34;28.83;;;15.75;;
35380;SDS011;21486;51.916;8.378;2024-03-02T06:38:00;30.33;;;16.17;;
35380;SDS011;21486;51.916;8.378;2024-03-02T06:40:26;29.70;;;15.43;;
35380;SDS011;21486;51.916;8.378;2024-03-02T06:42:51;28.43;;;15.27;;
35380;SDS011;21486;51.916;8.378;2024-03-02T06:45:17;26.87;;;14.60;;
35380;SDS011;21486;51.916;8.378;2024-03-02T06:47:42;29.30;;;15.73;;
35380;SDS011;21486;51.916;8.378;2024-03-02T06:50:08;28.47;;;14.90;;
35380;SDS011;21486;51.916;8.378;2024-03-02T06:52:34;29.15;;;15.55;;
35380;SDS011;21486;51.916;8.378;2024-03-02T06:55:00;29.92;;;16.13;;
35380;SDS011;21486;51.916;8.378;2024-03-02T06:57:26;26.73;;;15.47;;
35380;SDS011;21486;51.916;8.378;2024-03-02T06:59:51;28.27;;;15.90;;
35380;SDS011;21486;51.916;8.378;2024-03-02T07:02:19;31.03;;;16.03;;
35380;SDS011;21486;51.916;8.378;2024-03-02T07:04:45;31.40;;;15.77;;
35380;SDS011;21486;51.916;8.378;2024-03-02T07:07:11;32.60;;;16.55;;
35380;SDS011;21486;51.916;8.378;2024-03-02T07:09:37;29.73;;;15.52;;
35380;SDS011;21486;51.916;8.378;2024-03-02T07:12:03;27.95;;;15.23;;
35380;SDS011;21486;51.916;8.378;2024-03-02T07:14:28;30.67;;;15.27;;
35380;SDS011;21486;51.916;8.378;2024-03-02T07:17:13;30.40;;;16.75;;
35380;SDS011;21486;51.916;8.378;2024-03-02T07:19:38;28.30;;;16.10;;
35380;SDS011;21486;51.916;8.378;2024-03-02T07:22:07;29.33;;;15.40;;
35380;SDS011;21486;51.916;8.378;2024-03-02T07:24:38;28.48;;;15.48;;
35380;SDS011;21486;51.916;8.378;2024-03-02T07:27:07;31.00;;;15.88;;
35380;SDS011;21486;51.916;8.378;2024-03-02T07:29:34;28.92;;;15.50;;
35380;SDS011;21486;51.916;8.378;2024-03-02T07:31:59;29.17;;;15.98;;
35380;SDS011;21486;51.916;8.378;2024-03-02T07:34:25;33.30;;;17.37;;
35380;SDS011;21486;51.916;8.378;2024-03-02T07:36:50;28.50;;;15.20;;
35380;SDS011;21486;51.916;8.378;2024-03-02T07:39:16;27.27;;;15.15;;
35380;SDS011;21486;51.916;8.378;2024-03-02T07:41:42;30.40;;;15.85;;
35380;SDS011;21486;51.916;8.378;2024-03-02T07:44:07;29.40;;;15.40;;
35380;SDS011;21486;51.916;8.378;2024-03-02T07:46:33;29.05;;;15.40;;
35380;SDS011;21486;51.916;8.378;2024-03-02T07:48:58;27.70;;;15.80;;
35380;SDS011;21486;51.916;8.378;2024-03-02T07:51:24;25.87;;;14.37;;
35380;SDS011;21486;51.916;8.378;2024-03-02T07:53:49;28.30;;;15.37;;
35380;SDS011;21486;51.916;8.378;2024-03-02T07:56:15;27.35;;;15.52;;
35380;SDS011;21486;51.916;8.378;2024-03-02T07:58:47;26.48;;;15.15;;
35380;SDS011;21486;51.916;8.378;2024-03-02T08:01:13;25.98;;;15.05;;
35380;SDS011;21486;51.916;8.378;2024-03-02T08:03:39;27.25;;;14.85;;
35380;SDS011;21486;51.916;8.378;2024-03-02T08:06:05;25.90;;;14.43;;
35380;SDS011;21486;51.916;8.378;2024-03-02T08:08:31;25.35;;;14.27;;
35380;SDS011;21486;51.916;8.378;2024-03-02T08:10:56;26.08;;;14.15;;
35380;SDS011;21486;51.916;8.378;2024-03-02T08:13:22;25.97;;;14.40;;
35380;SDS011;21486;51.916;8.378;2024-03-02T08:15:47;27.50;;;14.30;;
35380;SDS011;21486;51.916;8.378;2024-03-02T08:18:13;29.92;;;14.70;;
35380;SDS011;21486;51.916;8.378;2024-03-02T08:20:39;25.52;;;14.15;;
35380;SDS011;21486;51.916;8.378;2024-03-02T08:23:05;21.90;;;12.75;;
35380;SDS011;21486;51.916;8.378;2024-03-02T08:25:31;24.58;;;13.48;;
35380;SDS011;21486;51.916;8.378;2024-03-02T08:27:56;23.80;;;12.90;;
35380;SDS011;21486;51.916;8.378;2024-03-02T08:30:23;23.23;;;12.82;;
35380;SDS011;21486;51.916;8.378;2024-03-02T08:32:48;21.92;;;11.95;;
35380;SDS011;21486;51.916;8.378;2024-03-02T08:35:14;23.73;;;12.97;;
35380;SDS011;21486;51.916;8.378;2024-03-02T08:37:39;22.07;;;12.10;;
35380;SDS011;21486;51.916;8.378;2024-03-02T08:40:07;20.20;;;11.73;;
35380;SDS011;21486;51.916;8.378;2024-03-02T08:42:33;20.87;;;11.83;;
35380;SDS011;21486;51.916;8.378;2024-03-02T08:44:59;19.47;;;11.53;;
35380;SDS011;21486;51.916;8.378;2024-03-02T08:47:26;19.52;;;11.45;;
35380;SDS011;21486;51.916;8.378;2024-03-02T08:49:52;19.70;;;11.13;;
35380;SDS011;21486;51.916;8.378;2024-03-02T08:52:18;21.83;;;11.35;;
35380;SDS011;21486;51.916;8.378;2024-03-02T08:54:43;18.33;;;10.90;;
35380;SDS011;21486;51.916;8.378;2024-03-02T08:57:09;20.27;;;11.27;;
35380;SDS011;21486;51.916;8.378;2024-03-02T08:59:34;18.10;;;10.60;;
35380;SDS011;21486;51.916;8.378;2024-03-02T09:02:00;19.38;;;11.02;;
35380;SDS011;21486;51.916;8.378;2024-03-02T09:04:25;19.27;;;10.75;;
35380;SDS011;21486;51.916;8.378;2024-03-02T09:06:51;15.77;;;9.18;;
35380;SDS011;21486;51.916;8.378;2024-03-02T09:09:17;16.17;;;9.20;;
35380;SDS011;21486;51.916;8.378;2024-03-02T09:11:42;15.30;;;8.63;;
35380;SDS011;21486;51.916;8.378;2024-03-02T09:14:08;14.02;;;8.15;;
35380;SDS011;21486;51.916;8.378;2024-03-02T09:16:33;13.20;;;7.40;;
35380;SDS011;21486;51.916;8.378;2024-03-02T09:18:59;10.83;;;6.57;;
35380;SDS011;21486;51.916;8.378;2024-03-02T09:21:25;12.82;;;6.90;;
35380;SDS011;21486;51.916;8.378;2024-03-02T09:23:51;15.47;;;7.33;;
35380;SDS011;21486;51.916;8.378;2024-03-02T09:26:16;10.40;;;5.70;;
35380;SDS011;21486;51.916;8.378;2024-03-02T09:28:43;11.25;;;5.93;;
35380;SDS011;21486;51.916;8.378;2024-03-02T09:31:08;10.32;;;5.40;;
35380;SDS011;21486;51.916;8.378;2024-03-02T09:33:34;8.05;;;5.00;;
35380;SDS011;21486;51.916;8.378;2024-03-02T09:35:59;8.87;;;4.90;;
35380;SDS011;21486;51.916;8.378;2024-03-02T09:38:25;7.93;;;4.70;;
35380;SDS011;21486;51.916;8.378;2024-03-02T09:40:51;9.00;;;4.97;;
35380;SDS011;21486;51.916;8.378;2024-03-02T09:43:16;11.47;;;5.43;;
35380;SDS011;21486;51.916;8.378;2024-03-02T09:45:42;9.33;;;5.80;;
35380;SDS011;21486;51.916;8.378;2024-03-02T09:48:08;10.10;;;5.47;;
35380;SDS011;21486;51.916;8.378;2024-03-02T09:50:33;8.93;;;5.30;;
35380;SDS011;21486;51.916;8.378;2024-03-02T09:52:59;10.75;;;5.82;;
35380;SDS011;21486;51.916;8.378;2024-03-02T09:55:24;11.10;;;5.30;;
35380;SDS011;21486;51.916;8.378;2024-03-02T09:57:50;9.05;;;5.13;;
35380;SDS011;21486;51.916;8.378;2024-03-02T10:00:16;12.20;;;6.15;;
35380;SDS011;21486;51.916;8.378;2024-03-02T10:02:42;11.60;;;6.68;;
35380;SDS011;21486;51.916;8.378;2024-03-02T10:05:08;14.37;;;7.70;;
35380;SDS011;21486;51.916;8.378;2024-03-02T10:07:34;12.03;;;7.80;;
35380;SDS011;21486;51.916;8.378;2024-03-02T10:10:00;14.70;;;8.73;;
35380;SDS011;21486;51.916;8.378;2024-03-02T10:12:40;13.25;;;7.40;;
35380;SDS011;21486;51.916;8.378;2024-03-02T10:15:06;15.10;;;7.47;;
35380;SDS011;21486;51.916;8.378;2024-03-02T10:17:32;13.40;;;7.57;;
35380;SDS011;21486;51.916;8.378;2024-03-02T10:19:58;13.50;;;7.00;;
35380;SDS011;21486;51.916;8.378;2024-03-02T10:22:23;13.90;;;6.85;;
35380;SDS011;21486;51.916;8.378;2024-03-02T10:24:49;13.10;;;6.67;;
35380;SDS011;21486;51.916;8.378;2024-03-02T10:27:18;13.82;;;6.78;;
35380;SDS011;21486;51.916;8.378;2024-03-02T10:29:48;11.30;;;7.03;;
35380;SDS011;21486;51.916;8.378;2024-03-02T10:32:15;12.85;;;7.10;;
35380;SDS011;21486;51.916;8.378;2024-03-02T10:34:41;8.18;;;4.90;;
35380;SDS011;21486;51.916;8.378;2024-03-02T10:37:08;9.10;;;4.95;;
35380;SDS011;21486;51.916;8.378;2024-03-02T10:39:35;7.82;;;5.18;;
35380;SDS011;21486;51.916;8.378;2024-03-02T10:42:02;9.85;;;5.63;;
35380;SDS011;21486;51.916;8.378;2024-03-02T10:44:28;11.13;;;5.78;;
35380;SDS011;21486;51.916;8.378;2024-03-02T10:46:55;10.25;;;6.45;;
35380;SDS011;21486;51.916;8.378;2024-03-02T10:49:22;12.10;;;7.05;;
35380;SDS011;21486;51.916;8.378;2024-03-02T10:51:50;12.25;;;6.95;;
35380;SDS011;21486;51.916;8.378;2024-03-02T10:54:15;12.73;;;6.80;;
35380;SDS011;21486;51.916;8.378;2024-03-02T10:56:44;12.35;;;6.75;;
35380;SDS011;21486;51.916;8.378;2024-03-02T10:59:16;11.25;;;6.47;;
35380;SDS011;21486;51.916;8.378;2024-03-02T11:01:49;11.47;;;5.83;;
35380;SDS011;21486;51.916;8.378;2024-03-02T11:04:16;10.70;;;6.88;;
35380;SDS011;21486;51.916;8.378;2024-03-02T11:06:49;9.15;;;5.53;;
35380;SDS011;21486;51.916;8.378;2024-03-02T11:09:18;9.63;;;5.30;;
35380;SDS011;21486;51.916;8.378;2024-03-02T11:11:45;12.52;;;6.60;;
35380;SDS011;21486;51.916;8.378;2024-03-02T11:14:27;14.23;;;7.60;;
35380;SDS011;21486;51.916;8.378;2024-03-02T11:16:57;13.75;;;7.00;;
35380;SDS011;21486;51.916;8.378;2024-03-02T11:19:23;10.55;;;7.15;;
35380;SDS011;21486;51.916;8.378;2024-03-02T11:21:49;13.02;;;7.30;;
35380;SDS011;21486;51.916;8.378;2024-03-02T11:26:48;12.00;;;7.28;;
35380;SDS011;21486;51.916;8.378;2024-03-02T11:32:01;11.80;;;7.20;;
35380;SDS011;21486;51.916;8.378;2024-03-02T11:34:31;10.70;;;6.82;;
35380;SDS011;21486;51.916;8.378;2024-03-02T11:36:57;15.03;;;7.50;;
35380;SDS011;21486;51.916;8.378;2024-03-02T11:39:26;10.67;;;7.13;;
35380;SDS011;21486;51.916;8.378;2024-03-02T11:41:53;12.07;;;7.57;;
35380;SDS011;21486;51.916;8.378;2024-03-02T11:44:19;12.98;;;7.25;;
35380;SDS011;21486;51.916;8.378;2024-03-02T11:46:45;11.53;;;6.77;;
35380;SDS011;21486;51.916;8.378;2024-03-02T11:52:07;10.32;;;6.47;;
35380;SDS011;21486;51.916;8.378;2024-03-02T11:54:34;8.93;;;5.53;;
35380;SDS011;21486;51.916;8.378;2024-03-02T11:57:02;11.97;;;6.40;;
35380;SDS011;21486;51.916;8.378;2024-03-02T11:59:29;11.45;;;6.22;;
35380;SDS011;21486;51.916;8.378;2024-03-02T12:01:55;9.20;;;5.65;;
35380;SDS011;21486;51.916;8.378;2024-03-02T12:04:21;7.55;;;4.82;;
35380;SDS011;21486;51.916;8.378;2024-03-02T12:06:47;7.18;;;4.75;;
35380;SDS011;21486;51.916;8.378;2024-03-02T12:09:19;7.85;;;4.25;;
35380;SDS011;21486;51.916;8.378;2024-03-02T12:11:46;8.52;;;4.40;;
35380;SDS011;21486;51.916;8.378;2024-03-02T12:14:11;8.93;;;3.90;;
35380;SDS011;21486;51.916;8.378;2024-03-02T12:16:37;3.83;;;1.60;;
35380;SDS011;21486;51.916;8.378;2024-03-02T12:19:04;3.13;;;1.60;;
35380;SDS011;21486;51.916;8.378;2024-03-02T12:21:31;4.25;;;1.70;;
35380;SDS011;21486;51.916;8.378;2024-03-02T12:23:56;2.10;;;1.35;;
35380;SDS011;21486;51.916;8.378;2024-03-02T12:26:22;2.92;;;1.65;;
35380;SDS011;21486;51.916;8.378;2024-03-02T12:28:48;2.60;;;1.45;;
35380;SDS011;21486;51.916;8.378;2024-03-02T12:31:14;1.93;;;1.47;;
35380;SDS011;21486;51.916;8.378;2024-03-02T12:33:40;4.40;;;1.70;;
35380;SDS011;21486;51.916;8.378;2024-03-02T12:36:09;2.47;;;1.60;;
35380;SDS011;21486;51.916;8.378;2024-03-02T12:38:37;3.85;;;1.67;;
35380;SDS011;21486;51.916;8.378;2024-03-02T12:41:02;2.95;;;1.50;;
35380;SDS011;21486;51.916;8.378;2024-03-02T12:43:31;5.13;;;2.97;;
35380;SDS011;21486;51.916;8.378;2024-03-02T12:45:58;6.35;;;3.33;;
35380;SDS011;21486;51.916;8.378;2024-03-02T12:48:24;6.25;;;3.60;;
35380;SDS011;21486;51.916;8.378;2024-03-02T12:50:50;7.97;;;3.70;;
35380;SDS011;21486;51.916;8.378;2024-03-02T12:53:16;9.45;;;4.90;;
35380;SDS011;21486;51.916;8.378;2024-03-02T12:55:42;7.40;;;4.68;;
35380;SDS011;21486;51.916;8.378;2024-03-02T12:58:15;8.82;;;5.13;;
35380;SDS011;21486;51.916;8.378;2024-03-02T13:00:46;9.07;;;4.55;;
35380;SDS011;21486;51.916;8.378;2024-03-02T13:03:11;8.02;;;4.45;;
35380;SDS011;21486;51.916;8.378;2024-03-02T13:05:37;7.23;;;4.10;;
35380;SDS011;21486;51.916;8.378;2024-03-02T13:08:02;6.85;;;3.85;;
35380;SDS011;21486;51.916;8.378;2024-03-02T13:10:29;7.82;;;4.13;;
35380;SDS011;21486;51.916;8.378;2024-03-02T13:12:58;8.48;;;4.10;;
35380;SDS011;21486;51.916;8.378;2024-03-02T13:15:28;7.78;;;4.50;;
35380;SDS011;21486;51.916;8.378;2024-03-02T13:17:53;7.50;;;4.25;;
35380;SDS011;21486;51.916;8.378;2024-03-02T13:20:23;6.00;;;4.03;;
35380;SDS011;21486;51.916;8.378;2024-03-02T13:22:54;7.90;;;4.10;;
35380;SDS011;21486;51.916;8.378;2024-03-02T13:25:20;7.67;;;4.53;;
35380;SDS011;21486;51.916;8.378;2024-03-02T13:27:46;6.93;;;4.15;;
35380;SDS011;21486;51.916;8.378;2024-03-02T13:30:12;7.20;;;4.23;;
35380;SDS011;21486;51.916;8.378;2024-03-02T13:32:37;6.73;;;4.30;;
35380;SDS011;21486;51.916;8.378;2024-03-02T13:35:03;7.85;;;4.35;;
35380;SDS011;21486;51.916;8.378;2024-03-02T13:37:29;10.63;;;4.18;;
35380;SDS011;21486;51.916;8.378;2024-03-02T13:39:54;8.37;;;4.60;;
35380;SDS011;21486;51.916;8.378;2024-03-02T13:42:20;7.18;;;4.50;;
35380;SDS011;21486;51.916;8.378;2024-03-02T13:44:45;9.63;;;4.30;;
35380;SDS011;21486;51.916;8.378;2024-03-02T13:47:13;8.32;;;4.80;;
35380;SDS011;21486;51.916;8.378;2024-03-02T13:49:38;7.93;;;4.40;;
35380;SDS011;21486;51.916;8.378;2024-03-02T13:52:08;6.32;;;4.10;;
35380;SDS011;21486;51.916;8.378;2024-03-02T13:54:41;7.25;;;4.13;;
35380;SDS011;21486;51.916;8.378;2024-03-02T13:57:10;7.95;;;4.40;;
35380;SDS011;21486;51.916;8.378;2024-03-02T13:59:37;6.18;;;4.13;;
35380;SDS011;21486;51.916;8.378;2024-03-02T14:02:04;6.53;;;4.20;;
35380;SDS011;21486;51.916;8.378;2024-03-02T14:04:32;12.27;;;4.10;;
35380;SDS011;21486;51.916;8.378;2024-03-02T14:06:58;6.45;;;4.05;;
35380;SDS011;21486;51.916;8.378;2024-03-02T14:09:24;7.78;;;4.20;;
35380;SDS011;21486;51.916;8.378;2024-03-02T14:11:50;8.77;;;4.05;;
35380;SDS011;21486;51.916;8.378;2024-03-02T14:14:16;9.02;;;4.45;;
35380;SDS011;21486;51.916;8.378;2024-03-02T14:16:42;7.93;;;4.38;;
35380;SDS011;21486;51.916;8.378;2024-03-02T14:19:08;9.27;;;5.07;;
35380;SDS011;21486;51.916;8.378;2024-03-02T14:21:34;7.10;;;4.45;;
35380;SDS011;21486;51.916;8.378;2024-03-02T14:24:01;7.60;;;4.10;;
35380;SDS011;21486;51.916;8.378;2024-03-02T14:26:26;7.75;;;4.70;;
35380;SDS011;21486;51.916;8.378;2024-03-02T14:28:53;7.90;;;4.65;;
35380;SDS011;21486;51.916;8.378;2024-03-02T14:31:18;9.30;;;4.23;;
35380;SDS011;21486;51.916;8.378;2024-03-02T14:33:45;7.65;;;4.20;;
35380;SDS011;21486;51.916;8.378;2024-03-02T14:36:11;7.20;;;3.88;;